Terminal Aerodrome Forecast
Issued by NWS Tampa Bay Area, FL

Home | Current Version | Previous Version | Text Only | Print | Product List | Glossary On
Versions: 1 2 3 4 5 6 7 8 9 10 11 12 13 14 15 16 17 18 19 20 21 22 23 24
000
FTUS42 KTBW 301125
TAFTPA
TAF
KTPA 301125Z 3012/0112 13005KT P6SM SCT250
     FM301400 15008KT P6SM SCT250
     FM301900 24008KT P6SM FEW045 SCT100
     FM302300 28007KT P6SM FEW050 SCT100
     FM010200 VRB05KT P6SM SCT040
     FM010400 11004KT P6SM FEW200=

USA.gov is the U.S. government's official web portal to all federal, state and local government web resources and services.